AAL1861 KDFW-MMUN
Flight info
| Callsign | AAL1861 |
|---|---|
| Flight time | N/A |
| Altitude | 37000 |
| Route | DARTZ9 TNV DCT SBI A766 KEHLI UL209 BETAS DCT VOMAR VOMAR1A |
| Aircraft | B738/M-SDE2E3FGHIRWXY/LB1 |
Departure
| Time | 2026-05-06 14:34 |
|---|---|
| Airport | Dallas Fort Worth International Airport (KDFW) |
Arrival
| Time | N/A |
|---|---|
| Airport | Cancún International Airport (MMUN) |
| Time | Latitude | Longitude | Altitude | Speed | Heading |
|---|---|---|---|---|---|
| 2026-05-06 14:18 | 32.89510 | -97.04453 | 592 ft | 0 kts | 359° |
| 2026-05-06 14:26 | 32.89506 | -97.04453 | 592 ft | 2 kts | 359° |
| 2026-05-06 14:26 | 32.89490 | -97.04452 | 593 ft | 2 kts | 356° |
| 2026-05-06 14:27 | 32.89474 | -97.04450 | 593 ft | 2 kts | 351° |
| 2026-05-06 14:27 | 32.89458 | -97.04446 | 592 ft | 2 kts | 342° |
| 2026-05-06 14:27 | 32.89443 | -97.04439 | 592 ft | 2 kts | 324° |
| 2026-05-06 14:27 | 32.89431 | -97.04424 | 592 ft | 2 kts | 289° |
| 2026-05-06 14:28 | 32.89429 | -97.04409 | 592 ft | 1 kts | 271° |
| 2026-05-06 14:28 | 32.89429 | -97.04406 | 592 ft | 0 kts | 271° |
| 2026-05-06 14:29 | 32.89429 | -97.04421 | 592 ft | 4 kts | 270° |
| 2026-05-06 14:29 | 32.89429 | -97.04485 | 593 ft | 11 kts | 270° |
| 2026-05-06 14:29 | 32.89429 | -97.04612 | 593 ft | 19 kts | 270° |
| 2026-05-06 14:29 | 32.89412 | -97.04768 | 593 ft | 19 kts | 259° |
| 2026-05-06 14:30 | 32.89370 | -97.04884 | 596 ft | 15 kts | 204° |
| 2026-05-06 14:30 | 32.89269 | -97.04890 | 593 ft | 16 kts | 179° |
| 2026-05-06 14:30 | 32.89130 | -97.04891 | 590 ft | 24 kts | 181° |
| 2026-05-06 14:30 | 32.88942 | -97.04893 | 589 ft | 30 kts | 180° |
| 2026-05-06 14:31 | 32.88708 | -97.04893 | 587 ft | 36 kts | 180° |
| 2026-05-06 14:31 | 32.88445 | -97.04895 | 588 ft | 39 kts | 180° |
| 2026-05-06 14:31 | 32.88186 | -97.04897 | 589 ft | 36 kts | 180° |
| 2026-05-06 14:31 | 32.88065 | -97.04910 | 588 ft | 7 kts | 226° |
| 2026-05-06 14:32 | 32.88058 | -97.04959 | 588 ft | 0 kts | 271° |
| 2026-05-06 14:32 | 32.88058 | -97.04961 | 588 ft | 3 kts | 271° |
| 2026-05-06 14:32 | 32.88062 | -97.05050 | 589 ft | 15 kts | 289° |
| 2026-05-06 14:33 | 32.88169 | -97.05093 | 590 ft | 26 kts | 0° |
| 2026-05-06 14:33 | 32.88623 | -97.05090 | 587 ft | 105 kts | 0° |
| 2026-05-06 14:33 | 32.89591 | -97.05083 | 639 ft | 168 kts | 0° |
| 2026-05-06 14:33 | 32.90897 | -97.05098 | 1084 ft | 203 kts | 360° |
| 2026-05-06 14:34 | 32.92132 | -97.05115 | 1676 ft | 216 kts | 360° |
| 2026-05-06 14:34 | 32.93664 | -97.05183 | 2594 ft | 222 kts | 353° |
| 2026-05-06 14:34 | 32.95188 | -97.05676 | 3408 ft | 227 kts | 341° |
| 2026-05-06 14:34 | 32.96686 | -97.06299 | 4003 ft | 234 kts | 338° |
| 2026-05-06 14:35 | 32.98297 | -97.06965 | 4313 ft | 254 kts | 338° |
| 2026-05-06 14:35 | 32.99864 | -97.07954 | 4917 ft | 256 kts | 313° |
| 2026-05-06 14:35 | 33.00832 | -97.09688 | 5699 ft | 251 kts | 286° |
| 2026-05-06 14:35 | 33.01064 | -97.11722 | 6469 ft | 250 kts | 268° |
| 2026-05-06 14:36 | 33.00961 | -97.13803 | 7190 ft | 252 kts | 264° |
| 2026-05-06 14:36 | 33.00812 | -97.15884 | 7974 ft | 252 kts | 264° |
| 2026-05-06 14:36 | 33.00628 | -97.17981 | 8635 ft | 259 kts | 262° |
| 2026-05-06 14:36 | 33.00402 | -97.20102 | 9275 ft | 264 kts | 262° |
| 2026-05-06 14:37 | 33.00153 | -97.22275 | 10038 ft | 265 kts | 257° |
| 2026-05-06 14:37 | 32.99457 | -97.24337 | 10513 ft | 277 kts | 240° |
| 2026-05-06 14:37 | 32.98170 | -97.26171 | 10668 ft | 301 kts | 226° |
| 2026-05-06 14:37 | 32.96528 | -97.27869 | 10815 ft | 325 kts | 215° |
| 2026-05-06 14:38 | 32.94381 | -97.29001 | 10984 ft | 349 kts | 199° |
| 2026-05-06 14:38 | 32.91919 | -97.29332 | 11410 ft | 364 kts | 183° |
| 2026-05-06 14:38 | 32.89388 | -97.29158 | 12125 ft | 363 kts | 181° |
| 2026-05-06 14:38 | 32.86901 | -97.28966 | 12829 ft | 362 kts | 182° |
| 2026-05-06 14:39 | 32.84387 | -97.28803 | 13485 ft | 362 kts | 183° |
| 2026-05-06 14:39 | 32.81868 | -97.28661 | 14081 ft | 364 kts | 183° |
| 2026-05-06 14:39 | 32.79325 | -97.28183 | 14538 ft | 377 kts | 171° |
| 2026-05-06 14:39 | 32.76840 | -97.27045 | 15024 ft | 389 kts | 161° |
| 2026-05-06 14:40 | 32.74513 | -97.25287 | 15494 ft | 403 kts | 150° |
| 2026-05-06 14:40 | 32.72309 | -97.23194 | 15955 ft | 408 kts | 149° |
| 2026-05-06 14:40 | 32.70104 | -97.21025 | 16413 ft | 413 kts | 148° |
| 2026-05-06 14:40 | 32.67888 | -97.18832 | 16869 ft | 416 kts | 149° |
| 2026-05-06 14:41 | 32.65657 | -97.16637 | 17355 ft | 418 kts | 149° |
| 2026-05-06 14:41 | 32.63400 | -97.14437 | 17826 ft | 420 kts | 150° |
| 2026-05-06 14:41 | 32.61156 | -97.12265 | 18265 ft | 423 kts | 150° |
| 2026-05-06 14:41 | 32.58862 | -97.10057 | 18638 ft | 426 kts | 150° |
| 2026-05-06 14:42 | 32.56551 | -97.07838 | 18990 ft | 430 kts | 150° |
| 2026-05-06 14:42 | 32.54216 | -97.05601 | 19352 ft | 433 kts | 150° |
| 2026-05-06 14:42 | 32.51861 | -97.03346 | 19732 ft | 436 kts | 150° |
| 2026-05-06 14:42 | 32.49494 | -97.01080 | 20096 ft | 439 kts | 150° |
| 2026-05-06 14:43 | 32.47109 | -96.98798 | 20456 ft | 442 kts | 150° |
| 2026-05-06 14:43 | 32.44706 | -96.96499 | 20810 ft | 444 kts | 150° |
| 2026-05-06 14:43 | 32.42299 | -96.94198 | 21158 ft | 447 kts | 150° |
| 2026-05-06 14:43 | 32.39871 | -96.91879 | 21494 ft | 450 kts | 150° |
| 2026-05-06 14:44 | 32.37428 | -96.89546 | 21826 ft | 452 kts | 150° |
| 2026-05-06 14:44 | 32.34973 | -96.87203 | 22158 ft | 455 kts | 150° |
| 2026-05-06 14:44 | 32.32498 | -96.84844 | 22460 ft | 458 kts | 150° |
| 2026-05-06 14:45 | 32.27325 | -96.80685 | 23056 ft | 446 kts | 163° |
| 2026-05-06 14:45 | 32.24474 | -96.79362 | 23344 ft | 437 kts | 172° |
| 2026-05-06 14:45 | 32.21571 | -96.78270 | 23630 ft | 439 kts | 172° |
| 2026-05-06 14:45 | 32.18648 | -96.77179 | 23861 ft | 441 kts | 172° |
| 2026-05-06 14:46 | 32.15720 | -96.76075 | 24118 ft | 443 kts | 172° |
| 2026-05-06 14:46 | 32.12783 | -96.74952 | 24370 ft | 445 kts | 172° |
| 2026-05-06 14:46 | 32.09831 | -96.73811 | 24615 ft | 447 kts | 171° |
| 2026-05-06 14:46 | 32.06865 | -96.72660 | 24855 ft | 449 kts | 171° |
| 2026-05-06 14:47 | 32.03927 | -96.71516 | 25084 ft | 451 kts | 171° |
| 2026-05-06 14:47 | 32.00946 | -96.70356 | 25314 ft | 452 kts | 171° |
| 2026-05-06 14:47 | 31.97954 | -96.69192 | 25548 ft | 454 kts | 171° |
| 2026-05-06 14:47 | 31.94911 | -96.68010 | 25780 ft | 455 kts | 171° |
| 2026-05-06 14:48 | 31.91938 | -96.66858 | 25983 ft | 457 kts | 171° |
| 2026-05-06 14:48 | 31.88909 | -96.65685 | 26189 ft | 459 kts | 171° |
| 2026-05-06 14:48 | 31.85871 | -96.64510 | 26413 ft | 460 kts | 171° |
| 2026-05-06 14:48 | 31.82821 | -96.63333 | 26617 ft | 462 kts | 171° |
| 2026-05-06 14:49 | 31.79760 | -96.62151 | 26822 ft | 463 kts | 171° |
| 2026-05-06 14:49 | 31.76689 | -96.60966 | 27022 ft | 465 kts | 171° |
| 2026-05-06 14:49 | 31.73614 | -96.59780 | 27218 ft | 466 kts | 171° |
| 2026-05-06 14:49 | 31.70521 | -96.58587 | 27451 ft | 467 kts | 171° |
| 2026-05-06 14:50 | 31.67427 | -96.57393 | 27726 ft | 466 kts | 172° |
| 2026-05-06 14:50 | 31.64352 | -96.56206 | 28047 ft | 465 kts | 172° |
| 2026-05-06 14:50 | 31.61323 | -96.55039 | 28346 ft | 464 kts | 172° |
| 2026-05-06 14:50 | 31.58256 | -96.53860 | 28609 ft | 464 kts | 172° |
| 2026-05-06 14:51 | 31.55180 | -96.52678 | 28862 ft | 464 kts | 172° |
| 2026-05-06 14:51 | 31.52113 | -96.51501 | 29143 ft | 463 kts | 172° |
| 2026-05-06 14:51 | 31.49050 | -96.50336 | 29433 ft | 462 kts | 173° |
| 2026-05-06 14:51 | 31.45990 | -96.49187 | 29707 ft | 461 kts | 173° |
| 2026-05-06 14:52 | 31.42926 | -96.48044 | 29964 ft | 461 kts | 173° |
| 2026-05-06 14:52 | 31.39873 | -96.46905 | 30179 ft | 461 kts | 173° |
| 2026-05-06 14:52 | 31.36816 | -96.45764 | 30409 ft | 460 kts | 173° |
| 2026-05-06 14:52 | 31.33809 | -96.44639 | 30642 ft | 459 kts | 173° |
| 2026-05-06 14:53 | 31.30766 | -96.43501 | 30860 ft | 459 kts | 173° |
| 2026-05-06 14:53 | 31.27721 | -96.42364 | 31059 ft | 459 kts | 173° |
| 2026-05-06 14:53 | 31.24672 | -96.41224 | 31290 ft | 459 kts | 173° |
| 2026-05-06 14:53 | 31.21638 | -96.40091 | 31537 ft | 458 kts | 173° |
| 2026-05-06 14:54 | 31.18602 | -96.38958 | 31779 ft | 457 kts | 173° |
| 2026-05-06 14:54 | 31.15576 | -96.37831 | 31993 ft | 457 kts | 174° |
| 2026-05-06 14:54 | 31.12541 | -96.36700 | 32235 ft | 457 kts | 174° |
| 2026-05-06 14:54 | 31.09517 | -96.35573 | 32492 ft | 456 kts | 174° |
| 2026-05-06 14:55 | 31.06494 | -96.34448 | 32723 ft | 455 kts | 174° |
| 2026-05-06 14:55 | 31.03473 | -96.33323 | 32933 ft | 455 kts | 174° |
| 2026-05-06 14:55 | 31.00495 | -96.32216 | 33160 ft | 455 kts | 174° |
| 2026-05-06 14:55 | 30.97473 | -96.31093 | 33389 ft | 455 kts | 174° |
| 2026-05-06 14:56 | 30.94461 | -96.29974 | 33646 ft | 454 kts | 174° |
| 2026-05-06 14:56 | 30.91456 | -96.28858 | 33864 ft | 454 kts | 174° |
| 2026-05-06 14:56 | 30.88447 | -96.27742 | 34052 ft | 454 kts | 174° |
| 2026-05-06 14:56 | 30.85444 | -96.26629 | 34272 ft | 453 kts | 174° |
| 2026-05-06 14:57 | 30.82448 | -96.25518 | 34493 ft | 452 kts | 174° |
| 2026-05-06 14:57 | 30.79457 | -96.24410 | 34697 ft | 451 kts | 174° |
| 2026-05-06 14:57 | 30.76469 | -96.23305 | 34872 ft | 451 kts | 174° |
| 2026-05-06 14:57 | 30.73475 | -96.22198 | 35048 ft | 450 kts | 174° |
| 2026-05-06 14:58 | 30.70489 | -96.21095 | 35233 ft | 450 kts | 174° |
| 2026-05-06 14:58 | 30.67505 | -96.19993 | 35401 ft | 449 kts | 174° |
| 2026-05-06 14:58 | 30.64528 | -96.18894 | 35554 ft | 448 kts | 174° |
| 2026-05-06 14:58 | 30.61588 | -96.17810 | 35698 ft | 448 kts | 174° |
| 2026-05-06 14:59 | 30.58617 | -96.16715 | 35846 ft | 447 kts | 174° |
| 2026-05-06 14:59 | 30.55651 | -96.15623 | 36000 ft | 447 kts | 174° |
| 2026-05-06 14:59 | 30.52689 | -96.14532 | 36156 ft | 446 kts | 174° |
| 2026-05-06 14:59 | 30.49727 | -96.13443 | 36303 ft | 446 kts | 174° |
| 2026-05-06 15:00 | 30.46761 | -96.12352 | 36460 ft | 445 kts | 174° |
| 2026-05-06 15:00 | 30.43815 | -96.11270 | 36587 ft | 445 kts | 174° |
| 2026-05-06 15:00 | 30.40865 | -96.10187 | 36709 ft | 444 kts | 174° |
| 2026-05-06 15:01 | 30.34969 | -96.08025 | 36705 ft | 445 kts | 174° |
| 2026-05-06 15:01 | 30.32057 | -96.06695 | 36664 ft | 463 kts | 160° |
| 2026-05-06 15:01 | 30.29460 | -96.04338 | 36711 ft | 487 kts | 142° |
| 2026-05-06 15:01 | 30.27439 | -96.01086 | 36692 ft | 511 kts | 123° |
| 2026-05-06 15:02 | 30.26148 | -95.97274 | 36757 ft | 519 kts | 116° |
| 2026-05-06 15:02 | 30.23923 | -95.89271 | 36757 ft | 524 kts | 114° |
| 2026-05-06 15:03 | 30.21725 | -95.81194 | 36809 ft | 526 kts | 115° |
| 2026-05-06 15:03 | 30.19432 | -95.73136 | 36849 ft | 527 kts | 115° |
| 2026-05-06 15:04 | 30.17089 | -95.65113 | 36889 ft | 527 kts | 116° |
| 2026-05-06 15:04 | 30.14747 | -95.57148 | 36912 ft | 527 kts | 115° |
| 2026-05-06 15:05 | 30.12391 | -95.49132 | 36916 ft | 526 kts | 115° |
| 2026-05-06 15:05 | 30.10040 | -95.41144 | 36901 ft | 525 kts | 115° |
| 2026-05-06 15:06 | 30.07693 | -95.33183 | 36915 ft | 523 kts | 115° |
| 2026-05-06 15:06 | 30.05342 | -95.25231 | 36903 ft | 522 kts | 115° |
| 2026-05-06 15:07 | 30.02995 | -95.17317 | 36897 ft | 521 kts | 115° |
| 2026-05-06 15:07 | 30.00645 | -95.09409 | 36900 ft | 519 kts | 116° |
| 2026-05-06 15:08 | 29.98296 | -95.01526 | 36910 ft | 519 kts | 116° |
| 2026-05-06 15:08 | 29.95950 | -94.93670 | 36904 ft | 518 kts | 116° |
| 2026-05-06 15:09 | 29.93597 | -94.85811 | 36907 ft | 517 kts | 116° |
| 2026-05-06 15:09 | 29.91261 | -94.78032 | 36910 ft | 517 kts | 116° |
| 2026-05-06 15:10 | 29.88901 | -94.70188 | 36908 ft | 518 kts | 116° |
| 2026-05-06 15:10 | 29.86536 | -94.62346 | 36907 ft | 518 kts | 116° |
| 2026-05-06 15:11 | 29.84562 | -94.55814 | 36918 ft | 519 kts | 116° |
| 2026-05-06 15:11 | 29.82182 | -94.47959 | 36915 ft | 519 kts | 116° |
| 2026-05-06 15:12 | 29.79413 | -94.38842 | 36914 ft | 519 kts | 116° |
| 2026-05-06 15:12 | 29.77413 | -94.32271 | 36926 ft | 519 kts | 116° |
| 2026-05-06 15:13 | 29.75017 | -94.24418 | 36920 ft | 519 kts | 116° |
| 2026-05-06 15:13 | 29.72640 | -94.16643 | 36918 ft | 519 kts | 116° |
| 2026-05-06 15:14 | 29.70172 | -94.08850 | 36913 ft | 514 kts | 122° |
| 2026-05-06 15:14 | 29.68448 | -94.05316 | 36923 ft | 501 kts | 133° |
| 2026-05-06 15:14 | 29.66325 | -94.02192 | 36935 ft | 491 kts | 141° |
| 2026-05-06 15:14 | 29.63894 | -93.99509 | 36914 ft | 477 kts | 152° |
| 2026-05-06 15:15 | 29.61251 | -93.97252 | 36953 ft | 473 kts | 153° |
| 2026-05-06 15:15 | 29.55915 | -93.92806 | 36938 ft | 474 kts | 153° |
| 2026-05-06 15:16 | 29.50599 | -93.88334 | 36927 ft | 474 kts | 153° |
| 2026-05-06 15:16 | 29.45289 | -93.83819 | 36932 ft | 474 kts | 152° |
| 2026-05-06 15:17 | 29.39996 | -93.79307 | 36948 ft | 474 kts | 152° |
| 2026-05-06 15:17 | 29.34703 | -93.74803 | 36956 ft | 474 kts | 152° |
| 2026-05-06 15:18 | 29.29397 | -93.70296 | 36947 ft | 475 kts | 152° |
| 2026-05-06 15:18 | 29.24085 | -93.65790 | 36948 ft | 475 kts | 152° |
| 2026-05-06 15:19 | 29.18769 | -93.61287 | 36959 ft | 475 kts | 152° |
| 2026-05-06 15:19 | 29.13450 | -93.56787 | 36950 ft | 475 kts | 152° |
| 2026-05-06 15:20 | 29.08130 | -93.52292 | 36956 ft | 476 kts | 152° |
| 2026-05-06 15:20 | 29.02802 | -93.47796 | 36956 ft | 476 kts | 152° |
| 2026-05-06 15:21 | 28.97473 | -93.43304 | 36961 ft | 476 kts | 152° |
| 2026-05-06 15:21 | 28.92143 | -93.38816 | 36957 ft | 476 kts | 152° |
| 2026-05-06 15:22 | 28.86810 | -93.34334 | 36958 ft | 476 kts | 152° |
| 2026-05-06 15:22 | 28.81496 | -93.29877 | 36958 ft | 476 kts | 152° |
| 2026-05-06 15:23 | 28.76164 | -93.25409 | 36959 ft | 476 kts | 152° |
| 2026-05-06 15:23 | 28.70832 | -93.20944 | 36959 ft | 475 kts | 152° |
| 2026-05-06 15:24 | 28.65502 | -93.16487 | 36963 ft | 475 kts | 152° |
| 2026-05-06 15:24 | 28.60174 | -93.12037 | 36959 ft | 474 kts | 152° |
| 2026-05-06 15:25 | 28.54883 | -93.07624 | 36958 ft | 474 kts | 152° |
| 2026-05-06 15:25 | 28.49566 | -93.03196 | 36965 ft | 473 kts | 152° |
| 2026-05-06 15:26 | 28.44256 | -92.98777 | 36961 ft | 473 kts | 152° |
| 2026-05-06 15:26 | 28.38953 | -92.94371 | 36964 ft | 472 kts | 152° |
| 2026-05-06 15:27 | 28.33651 | -92.89970 | 36961 ft | 472 kts | 152° |
| 2026-05-06 15:27 | 28.28356 | -92.85581 | 36961 ft | 471 kts | 151° |
| 2026-05-06 15:28 | 28.23052 | -92.81188 | 36962 ft | 471 kts | 151° |
| 2026-05-06 15:28 | 28.17776 | -92.76813 | 36964 ft | 472 kts | 151° |
| 2026-05-06 15:29 | 28.12472 | -92.72417 | 36963 ft | 472 kts | 151° |
| 2026-05-06 15:29 | 28.07164 | -92.68030 | 36967 ft | 473 kts | 151° |
| 2026-05-06 15:30 | 28.01832 | -92.63638 | 36965 ft | 473 kts | 151° |
| 2026-05-06 15:30 | 27.96501 | -92.59252 | 36961 ft | 474 kts | 151° |
| 2026-05-06 15:31 | 27.91162 | -92.54861 | 36966 ft | 475 kts | 151° |
| 2026-05-06 15:31 | 27.85846 | -92.50494 | 36967 ft | 475 kts | 151° |
| 2026-05-06 15:32 | 27.77814 | -92.43906 | 36965 ft | 476 kts | 150° |
| 2026-05-06 15:32 | 27.72452 | -92.39515 | 36968 ft | 476 kts | 150° |
| 2026-05-06 15:33 | 27.67081 | -92.35122 | 36967 ft | 477 kts | 150° |
| 2026-05-06 15:33 | 27.61705 | -92.30731 | 36967 ft | 477 kts | 150° |
| 2026-05-06 15:34 | 27.56358 | -92.26369 | 36969 ft | 477 kts | 150° |
| 2026-05-06 15:34 | 27.50942 | -92.21955 | 36967 ft | 477 kts | 150° |
| 2026-05-06 15:35 | 27.45605 | -92.17611 | 36980 ft | 477 kts | 150° |
| 2026-05-06 15:35 | 27.40224 | -92.13236 | 36966 ft | 476 kts | 150° |
| 2026-05-06 15:36 | 27.34854 | -92.08877 | 36967 ft | 476 kts | 150° |
| 2026-05-06 15:36 | 27.29491 | -92.04527 | 36959 ft | 475 kts | 150° |
| 2026-05-06 15:37 | 27.24138 | -92.00191 | 36964 ft | 474 kts | 150° |
| 2026-05-06 15:37 | 27.18784 | -91.95859 | 36961 ft | 473 kts | 150° |
| 2026-05-06 15:38 | 27.13437 | -91.91543 | 36963 ft | 472 kts | 150° |
| 2026-05-06 15:38 | 27.08136 | -91.87276 | 36959 ft | 472 kts | 150° |
| 2026-05-06 15:39 | 27.02807 | -91.82989 | 36960 ft | 471 kts | 150° |
| 2026-05-06 15:39 | 26.97482 | -91.78709 | 36968 ft | 470 kts | 150° |
| 2026-05-06 15:40 | 26.92162 | -91.74439 | 36965 ft | 470 kts | 150° |
| 2026-05-06 15:40 | 26.86835 | -91.70167 | 36966 ft | 470 kts | 150° |
| 2026-05-06 15:41 | 26.81514 | -91.65904 | 36966 ft | 470 kts | 150° |
| 2026-05-06 15:41 | 26.76198 | -91.61651 | 36964 ft | 470 kts | 150° |
| 2026-05-06 15:42 | 26.70906 | -91.57422 | 36963 ft | 470 kts | 150° |
| 2026-05-06 15:42 | 26.65581 | -91.53172 | 36966 ft | 470 kts | 150° |
| 2026-05-06 15:43 | 26.60250 | -91.48922 | 36963 ft | 470 kts | 150° |
| 2026-05-06 15:43 | 26.54916 | -91.44675 | 36967 ft | 471 kts | 150° |
| 2026-05-06 15:44 | 26.49581 | -91.40432 | 36968 ft | 471 kts | 149° |
| 2026-05-06 15:44 | 26.44233 | -91.36183 | 36961 ft | 471 kts | 149° |
| 2026-05-06 15:45 | 26.38935 | -91.31978 | 36962 ft | 471 kts | 149° |
| 2026-05-06 15:45 | 26.33590 | -91.27742 | 36962 ft | 471 kts | 149° |
| 2026-05-06 15:46 | 26.28248 | -91.23512 | 36965 ft | 471 kts | 149° |
| 2026-05-06 15:46 | 26.22902 | -91.19285 | 36967 ft | 470 kts | 149° |
| 2026-05-06 15:47 | 26.17561 | -91.15065 | 36966 ft | 470 kts | 149° |
| 2026-05-06 15:47 | 26.12250 | -91.10875 | 36968 ft | 470 kts | 149° |
| 2026-05-06 15:48 | 26.06917 | -91.06673 | 36967 ft | 470 kts | 149° |
| 2026-05-06 15:48 | 26.01574 | -91.02467 | 36969 ft | 469 kts | 149° |
| 2026-05-06 15:49 | 25.96237 | -90.98270 | 36966 ft | 469 kts | 149° |
| 2026-05-06 15:49 | 25.90898 | -90.94077 | 36966 ft | 469 kts | 149° |
| 2026-05-06 15:50 | 25.85606 | -90.89925 | 36971 ft | 469 kts | 149° |
| 2026-05-06 15:50 | 25.80273 | -90.85746 | 36969 ft | 468 kts | 149° |
| 2026-05-06 15:51 | 25.74944 | -90.81575 | 36971 ft | 468 kts | 149° |
| 2026-05-06 15:51 | 25.69621 | -90.77413 | 36969 ft | 468 kts | 149° |
| 2026-05-06 15:52 | 25.64295 | -90.73253 | 36967 ft | 468 kts | 149° |
| 2026-05-06 15:52 | 25.58967 | -90.69096 | 36972 ft | 468 kts | 149° |